createdAt,value
2018-07-21T00:00:42.014Z,3.73
2018-07-21T00:03:11.232Z,3.43
2018-07-21T00:05:40.356Z,3.80
2018-07-21T00:08:09.428Z,3.43
2018-07-21T00:10:38.563Z,3.77
2018-07-21T00:13:07.802Z,3.50
2018-07-21T00:15:37.114Z,3.50
2018-07-21T00:18:06.238Z,3.57
2018-07-21T00:20:35.354Z,3.47
2018-07-21T00:23:04.445Z,3.50
2018-07-21T00:25:33.567Z,3.50
2018-07-21T00:28:02.711Z,3.73
2018-07-21T00:30:31.843Z,4.03
2018-07-21T00:33:00.995Z,4.30
2018-07-21T00:35:30.110Z,3.70
2018-07-21T00:37:59.245Z,3.70
2018-07-21T00:40:28.505Z,3.53
2018-07-21T00:42:57.666Z,3.80
2018-07-21T00:45:26.773Z,3.50
2018-07-21T00:47:55.860Z,3.23
2018-07-21T00:50:25.053Z,3.23
2018-07-21T00:52:54.180Z,4.10
2018-07-21T00:55:23.293Z,3.13
2018-07-21T00:57:52.435Z,3.57
2018-07-21T01:00:21.582Z,3.37
2018-07-21T01:02:50.815Z,3.40
2018-07-21T01:05:19.906Z,3.33
2018-07-21T01:07:49.010Z,2.93
2018-07-21T01:10:18.223Z,3.07
2018-07-21T01:12:47.411Z,3.00
2018-07-21T01:15:16.553Z,3.30
2018-07-21T01:17:45.648Z,3.30
2018-07-21T01:20:14.783Z,3.50
2018-07-21T01:22:43.938Z,3.10
2018-07-21T01:25:13.013Z,3.23
2018-07-21T01:27:42.237Z,3.00
2018-07-21T01:30:11.310Z,3.30
2018-07-21T01:32:40.470Z,3.43
2018-07-21T01:35:09.608Z,2.90
2018-07-21T01:37:38.735Z,3.17
2018-07-21T01:40:07.894Z,2.87
2018-07-21T01:42:37.018Z,3.27
2018-07-21T01:45:06.197Z,3.80
2018-07-21T01:47:35.322Z,3.67
2018-07-21T01:50:04.890Z,2.87
2018-07-21T01:52:34.087Z,3.40
2018-07-21T01:55:03.210Z,3.70
2018-07-21T01:57:32.335Z,3.33
2018-07-21T02:00:01.459Z,2.90
2018-07-21T02:02:30.598Z,3.07
2018-07-21T02:04:59.681Z,3.60
2018-07-21T02:07:28.786Z,3.37
2018-07-21T02:09:57.914Z,3.57
2018-07-21T02:12:26.993Z,3.03
2018-07-21T02:14:56.114Z,2.93
2018-07-21T02:17:25.335Z,2.87
2018-07-21T02:19:54.398Z,3.40
2018-07-21T02:22:23.448Z,2.97
2018-07-21T02:24:52.635Z,3.10
2018-07-21T02:27:21.701Z,2.87
2018-07-21T02:29:50.837Z,3.50
2018-07-21T02:32:19.905Z,3.50
2018-07-21T02:34:48.994Z,3.00
2018-07-21T02:37:18.110Z,3.20
2018-07-21T02:39:47.309Z,3.70
2018-07-21T02:42:16.394Z,4.07
2018-07-21T02:44:45.525Z,3.60
2018-07-21T02:47:14.671Z,3.23
2018-07-21T02:49:43.739Z,3.70
2018-07-21T02:52:12.864Z,3.40
2018-07-21T02:54:41.970Z,2.90
2018-07-21T02:57:11.453Z,3.50
2018-07-21T02:59:40.536Z,3.90
2018-07-21T03:02:09.685Z,3.90
2018-07-21T03:04:38.758Z,3.80
2018-07-21T03:07:07.910Z,4.67
2018-07-21T03:09:36.957Z,3.03
2018-07-21T03:12:06.055Z,3.80
2018-07-21T03:14:35.118Z,3.60
2018-07-21T03:17:04.258Z,3.67
2018-07-21T03:19:33.162Z,4.27
2018-07-21T03:22:02.293Z,3.40
2018-07-21T03:24:31.470Z,3.50
2018-07-21T03:27:00.559Z,3.87
2018-07-21T03:29:29.646Z,4.00
2018-07-21T03:31:58.748Z,3.20
2018-07-21T03:34:27.867Z,3.73
2018-07-21T03:36:56.935Z,4.13
2018-07-21T03:39:26.038Z,3.50
2018-07-21T03:41:55.124Z,3.90
2018-07-21T03:44:24.219Z,3.40
2018-07-21T03:46:53.307Z,3.40
2018-07-21T03:49:22.625Z,3.80
2018-07-21T03:51:51.803Z,3.87
2018-07-21T03:54:20.935Z,3.57
2018-07-21T03:56:50.067Z,4.10
2018-07-21T03:59:19.338Z,3.57
2018-07-21T04:01:48.439Z,3.77
2018-07-21T04:04:17.555Z,3.37
2018-07-21T04:06:46.654Z,3.80
2018-07-21T04:09:15.841Z,3.80
2018-07-21T04:11:44.975Z,3.30
2018-07-21T04:14:14.049Z,3.37
2018-07-21T04:16:43.217Z,3.40
2018-07-21T04:19:12.585Z,3.63
2018-07-21T04:21:41.853Z,3.47
2018-07-21T04:24:11.058Z,3.67
2018-07-21T04:26:40.198Z,3.63
2018-07-21T04:29:09.311Z,4.27
2018-07-21T04:31:38.372Z,3.53
2018-07-21T04:34:07.491Z,3.00
2018-07-21T04:36:36.617Z,4.07
2018-07-21T04:39:09.268Z,3.40
2018-07-21T04:41:38.342Z,2.90
2018-07-21T04:44:07.579Z,3.00
2018-07-21T04:46:36.750Z,3.07
2018-07-21T04:49:06.091Z,3.30
2018-07-21T04:51:35.209Z,3.50
2018-07-21T04:54:04.364Z,3.87
2018-07-21T04:56:33.452Z,3.03
2018-07-21T04:59:02.572Z,3.67
2018-07-21T05:01:31.804Z,2.40
2018-07-21T05:04:00.922Z,3.37
2018-07-21T05:06:30.007Z,2.97
2018-07-21T05:08:59.111Z,2.87
2018-07-21T05:11:28.202Z,3.07
2018-07-21T05:13:57.310Z,2.63
2018-07-21T05:16:26.492Z,3.13
2018-07-21T05:18:55.614Z,2.83
2018-07-21T05:21:24.706Z,3.20
2018-07-21T05:23:53.805Z,2.23
2018-07-21T05:26:22.844Z,2.97
2018-07-21T05:28:51.894Z,2.87
2018-07-21T05:31:21.309Z,2.67
2018-07-21T05:33:50.920Z,3.03
2018-07-21T05:36:20.099Z,2.60
2018-07-21T05:38:49.316Z,1.97
2018-07-21T05:41:18.426Z,2.30
2018-07-21T05:43:47.617Z,2.10
2018-07-21T05:46:16.714Z,2.50
2018-07-21T05:48:45.785Z,3.17
2018-07-21T05:51:14.873Z,2.63
2018-07-21T05:53:43.942Z,2.17
2018-07-21T05:56:13.013Z,2.13
2018-07-21T05:58:42.130Z,3.33
2018-07-21T06:01:11.204Z,2.33
2018-07-21T06:03:40.359Z,2.27
2018-07-21T06:06:09.490Z,2.00
2018-07-21T06:08:38.550Z,1.70
2018-07-21T06:11:07.694Z,1.97
2018-07-21T06:13:36.772Z,2.03
2018-07-21T06:16:05.928Z,1.80
2018-07-21T06:18:35.073Z,1.77
2018-07-21T06:21:04.228Z,1.70
2018-07-21T06:23:33.364Z,2.10
2018-07-21T06:26:02.280Z,1.83
2018-07-21T06:28:31.406Z,1.40
2018-07-21T06:31:00.514Z,1.97
2018-07-21T06:33:29.634Z,2.30
2018-07-21T06:35:58.722Z,1.90
2018-07-21T06:38:27.814Z,2.10
2018-07-21T06:40:56.965Z,1.93
2018-07-21T06:43:26.095Z,2.10
2018-07-21T06:45:55.154Z,1.73
2018-07-21T06:48:24.243Z,1.97
2018-07-21T06:50:53.363Z,1.83
2018-07-21T06:53:22.441Z,2.40
2018-07-21T06:55:51.550Z,2.13
2018-07-21T06:58:20.682Z,2.60
2018-07-21T07:00:49.815Z,2.50
2018-07-21T07:03:18.965Z,2.30
2018-07-21T07:05:48.082Z,2.23
2018-07-21T07:08:17.959Z,2.27
2018-07-21T07:10:47.087Z,2.37
2018-07-21T07:13:16.225Z,2.60
2018-07-21T07:15:45.312Z,2.37
2018-07-21T07:18:14.421Z,2.47
2018-07-21T07:20:43.525Z,2.83
2018-07-21T07:23:12.887Z,2.40
2018-07-21T07:25:42.022Z,2.40
2018-07-21T07:28:11.184Z,2.40
2018-07-21T07:30:40.399Z,2.30
2018-07-21T07:33:09.494Z,2.50
2018-07-21T07:35:38.602Z,2.33
2018-07-21T07:38:07.714Z,2.20
2018-07-21T07:40:36.871Z,3.23
2018-07-21T07:43:06.539Z,2.10
2018-07-21T07:45:35.678Z,2.43
2018-07-21T07:48:04.811Z,2.50
2018-07-21T07:50:33.897Z,2.90
2018-07-21T07:53:04.746Z,2.87
2018-07-21T07:55:34.416Z,2.50
2018-07-21T07:58:04.588Z,2.90
2018-07-21T08:00:33.772Z,3.00
2018-07-21T08:03:03.263Z,3.83
2018-07-21T08:05:32.383Z,7.10
2018-07-21T08:08:01.473Z,4.67
2018-07-21T08:10:30.572Z,3.10
2018-07-21T08:12:59.687Z,2.93
2018-07-21T08:15:28.733Z,2.60
2018-07-21T08:17:58.327Z,2.90
2018-07-21T08:20:27.453Z,3.20
2018-07-21T08:22:56.944Z,2.93
2018-07-21T08:25:26.262Z,2.87
2018-07-21T08:27:55.668Z,3.33
2018-07-21T08:30:24.772Z,2.93
2018-07-21T08:32:53.876Z,3.00
2018-07-21T08:35:22.945Z,3.20
2018-07-21T08:37:52.091Z,3.60
2018-07-21T08:40:21.203Z,2.97
2018-07-21T08:42:50.349Z,2.90
2018-07-21T08:45:19.495Z,2.97
2018-07-21T08:47:48.546Z,3.23
2018-07-21T08:50:17.727Z,3.60
2018-07-21T08:52:46.837Z,3.20
2018-07-21T08:55:15.996Z,4.07
2018-07-21T08:57:45.091Z,3.50
2018-07-21T09:00:14.207Z,3.73
2018-07-21T09:02:43.306Z,3.20
2018-07-21T09:05:12.488Z,2.93
2018-07-21T09:07:41.553Z,2.03
2018-07-21T09:10:10.646Z,2.83
2018-07-21T09:12:39.770Z,2.80
2018-07-21T09:15:08.874Z,2.13
2018-07-21T09:17:37.943Z,2.47
2018-07-21T09:20:07.111Z,2.43
2018-07-21T09:22:36.205Z,2.30
2018-07-21T09:25:05.817Z,2.67
2018-07-21T09:27:34.915Z,2.67
2018-07-21T09:30:04.127Z,3.40
2018-07-21T09:32:33.247Z,3.20
2018-07-21T09:35:02.329Z,3.20
2018-07-21T09:37:31.467Z,4.90
2018-07-21T09:40:00.659Z,3.20
2018-07-21T09:42:29.712Z,3.17
2018-07-21T09:44:58.787Z,3.67
2018-07-21T09:47:27.987Z,3.03
2018-07-21T09:49:57.126Z,3.70
2018-07-21T09:52:26.179Z,3.40
2018-07-21T09:54:55.266Z,3.47
2018-07-21T09:57:24.542Z,3.80
2018-07-21T09:59:53.605Z,4.60
2018-07-21T10:02:22.691Z,2.70
2018-07-21T10:04:51.822Z,3.87
2018-07-21T10:07:20.887Z,3.57
2018-07-21T10:09:50.017Z,3.87
2018-07-21T10:12:19.163Z,3.57
2018-07-21T10:14:48.257Z,3.50
2018-07-21T10:17:17.355Z,3.63
2018-07-21T10:19:46.438Z,3.53
2018-07-21T10:22:15.633Z,3.20
2018-07-21T10:24:49.962Z,2.87
2018-07-21T10:27:19.103Z,2.83
2018-07-21T10:29:48.165Z,3.57
2018-07-21T10:32:17.236Z,3.67
2018-07-21T10:34:46.354Z,2.90
2018-07-21T10:37:15.516Z,3.60
2018-07-21T10:39:44.573Z,3.80
2018-07-21T10:42:13.724Z,3.77
2018-07-21T10:44:42.642Z,3.73
2018-07-21T10:47:11.712Z,3.07
2018-07-21T10:49:41.581Z,4.27
2018-07-21T10:52:10.638Z,3.90
2018-07-21T10:54:39.746Z,3.90
2018-07-21T10:57:08.812Z,3.50
2018-07-21T10:59:38.035Z,3.93
2018-07-21T11:02:07.137Z,3.10
2018-07-21T11:04:36.255Z,3.70
2018-07-21T11:07:05.451Z,4.20
2018-07-21T11:09:34.512Z,3.67
2018-07-21T11:12:03.667Z,4.30
2018-07-21T11:14:32.816Z,4.03
2018-07-21T11:17:01.876Z,3.87
2018-07-21T11:19:30.930Z,3.70
2018-07-21T11:22:00.045Z,3.77
2018-07-21T11:24:29.093Z,3.73
2018-07-21T11:26:58.195Z,3.70
2018-07-21T11:29:27.379Z,4.23
2018-07-21T11:31:56.476Z,3.77
2018-07-21T11:34:25.583Z,3.83
2018-07-21T11:36:54.692Z,4.20
2018-07-21T11:39:23.818Z,3.53
2018-07-21T11:41:52.894Z,3.43
2018-07-21T11:44:22.134Z,3.90
2018-07-21T11:46:51.194Z,3.93
2018-07-21T11:49:20.246Z,3.90
2018-07-21T11:51:49.322Z,4.17
2018-07-21T11:54:18.224Z,3.40
2018-07-21T11:56:47.315Z,4.37
2018-07-21T11:59:16.496Z,3.87
2018-07-21T12:01:45.661Z,4.10
2018-07-21T12:04:14.731Z,3.50
2018-07-21T12:06:43.890Z,3.83
2018-07-21T12:09:13.015Z,3.83
2018-07-21T12:11:42.111Z,3.87
2018-07-21T12:14:11.239Z,3.23
2018-07-21T12:16:40.551Z,3.33
2018-07-21T12:19:09.730Z,3.50
2018-07-21T12:21:38.826Z,3.63
2018-07-21T12:24:08.027Z,4.10
2018-07-21T12:26:37.146Z,3.90
2018-07-21T12:29:06.593Z,3.90
2018-07-21T12:31:35.839Z,3.90
2018-07-21T12:34:05.096Z,3.77
2018-07-21T12:36:34.207Z,4.10
2018-07-21T12:39:03.334Z,4.10
2018-07-21T12:41:32.440Z,3.33
2018-07-21T12:44:01.537Z,3.40
2018-07-21T12:46:30.651Z,3.43
2018-07-21T12:48:59.795Z,4.13
2018-07-21T12:51:28.953Z,3.83
2018-07-21T12:53:58.046Z,3.27
2018-07-21T12:56:27.163Z,3.50
2018-07-21T12:58:56.285Z,3.80
2018-07-21T13:01:25.374Z,3.57
2018-07-21T13:03:54.562Z,3.53
2018-07-21T13:06:23.711Z,3.53
2018-07-21T13:08:52.617Z,4.50
2018-07-21T13:11:21.695Z,4.40
2018-07-21T13:13:50.837Z,3.50
2018-07-21T13:16:19.958Z,3.37
2018-07-21T13:18:49.062Z,4.40
2018-07-21T13:21:18.235Z,4.20
2018-07-21T13:23:47.322Z,4.30
2018-07-21T13:26:16.422Z,3.93
2018-07-21T13:28:45.555Z,3.97
2018-07-21T13:31:14.670Z,3.30
2018-07-21T13:33:43.778Z,3.60
2018-07-21T13:36:12.899Z,4.53
2018-07-21T13:38:42.027Z,4.10
2018-07-21T13:41:11.100Z,4.27
2018-07-21T13:43:40.227Z,4.03
2018-07-21T13:46:09.373Z,3.80
2018-07-21T13:48:38.489Z,3.40
2018-07-21T13:51:08.056Z,4.23
2018-07-21T13:53:37.168Z,4.40
2018-07-21T13:56:06.615Z,3.77
2018-07-21T13:58:35.798Z,4.87
2018-07-21T14:01:04.855Z,4.00
2018-07-21T14:03:33.999Z,4.40
2018-07-21T14:06:03.142Z,3.77
2018-07-21T14:08:32.245Z,4.13
2018-07-21T14:11:01.376Z,3.87
2018-07-21T14:13:30.474Z,3.60
2018-07-21T14:15:59.723Z,4.63
2018-07-21T14:18:28.785Z,4.00
2018-07-21T14:20:57.942Z,4.10
2018-07-21T14:23:27.033Z,4.60
2018-07-21T14:25:56.123Z,4.30
2018-07-21T14:28:25.311Z,4.10
2018-07-21T14:30:54.467Z,4.40
2018-07-21T14:33:23.560Z,5.10
2018-07-21T14:35:52.743Z,4.23
2018-07-21T14:38:21.882Z,4.30
2018-07-21T14:40:51.035Z,3.50
2018-07-21T14:43:20.150Z,4.40
2018-07-21T14:45:49.238Z,4.17
2018-07-21T14:48:18.300Z,4.60
2018-07-21T14:50:47.419Z,4.20
2018-07-21T14:53:16.589Z,4.40
2018-07-21T14:55:45.729Z,5.03
2018-07-21T14:58:14.856Z,4.50
2018-07-21T15:00:44.022Z,4.53
2018-07-21T15:03:13.201Z,4.03
2018-07-21T15:05:42.282Z,4.17
2018-07-21T15:08:11.438Z,4.33
2018-07-21T15:10:40.573Z,4.37
2018-07-21T15:13:09.699Z,5.30
2018-07-21T15:15:38.884Z,4.00
2018-07-21T15:18:07.958Z,4.33
2018-07-21T15:20:37.182Z,3.80
2018-07-21T15:23:06.506Z,5.07
2018-07-21T15:25:35.644Z,4.33
2018-07-21T15:28:04.757Z,3.87
2018-07-21T15:30:33.973Z,4.07
2018-07-21T15:33:03.062Z,4.77
2018-07-21T15:35:32.250Z,4.57
2018-07-21T15:38:01.392Z,4.87
2018-07-21T15:40:30.559Z,5.23
2018-07-21T15:42:59.695Z,4.40
2018-07-21T15:45:28.749Z,3.90
2018-07-21T15:47:57.867Z,4.10
2018-07-21T15:50:26.966Z,4.20
2018-07-21T15:52:56.165Z,4.83
2018-07-21T15:55:25.352Z,4.90
2018-07-21T15:57:54.613Z,4.50
2018-07-21T16:00:23.708Z,4.77
2018-07-21T16:02:52.829Z,4.50
2018-07-21T16:05:21.991Z,5.40
2018-07-21T16:07:51.118Z,4.70
2018-07-21T16:10:20.277Z,4.87
2018-07-21T16:12:49.417Z,4.80
2018-07-21T16:15:18.551Z,4.00
2018-07-21T16:17:47.697Z,4.60
2018-07-21T16:20:16.997Z,5.73
2018-07-21T16:22:46.147Z,5.67
2018-07-21T16:25:15.424Z,5.20
2018-07-21T16:27:44.546Z,6.57
2018-07-21T16:30:13.641Z,6.33
2018-07-21T16:32:42.786Z,6.03
2018-07-21T16:35:11.982Z,6.80
2018-07-21T16:37:41.133Z,6.70
2018-07-21T16:40:10.296Z,6.03
2018-07-21T16:42:39.405Z,6.70
2018-07-21T16:45:08.543Z,6.27
2018-07-21T16:47:37.756Z,6.80
2018-07-21T16:50:06.894Z,6.30
2018-07-21T16:52:36.007Z,6.20
2018-07-21T16:55:05.125Z,6.80
2018-07-21T16:57:34.281Z,7.10
2018-07-21T17:00:03.389Z,6.47
2018-07-21T17:02:32.457Z,6.40
2018-07-21T17:05:01.616Z,6.73
2018-07-21T17:07:30.768Z,6.27
2018-07-21T17:09:59.640Z,6.43
2018-07-21T17:12:28.751Z,6.20
2018-07-21T17:14:57.923Z,6.47
2018-07-21T17:17:27.123Z,6.67
2018-07-21T17:19:56.226Z,6.57
2018-07-21T17:22:25.376Z,6.63
2018-07-21T17:24:54.531Z,6.63
2018-07-21T17:27:23.704Z,6.30
2018-07-21T17:29:52.918Z,6.13
2018-07-21T17:32:22.036Z,5.70
2018-07-21T17:34:51.217Z,5.63
2018-07-21T17:37:20.300Z,6.17
2018-07-21T17:39:49.395Z,5.90
2018-07-21T17:42:18.542Z,6.33
2018-07-21T17:44:47.693Z,6.07
2018-07-21T17:47:16.781Z,6.47
2018-07-21T17:49:45.904Z,5.90
2018-07-21T17:52:15.072Z,6.03
2018-07-21T17:54:44.158Z,5.90
2018-07-21T17:57:13.258Z,6.20
2018-07-21T17:59:42.367Z,5.93
2018-07-21T18:02:11.436Z,6.50
2018-07-21T18:04:40.544Z,5.30
2018-07-21T18:07:09.823Z,5.50
2018-07-21T18:09:38.918Z,5.80
2018-07-21T18:12:08.008Z,5.60
2018-07-21T18:14:37.174Z,5.53
2018-07-21T18:17:06.335Z,6.10
2018-07-21T18:19:35.389Z,5.87
2018-07-21T18:22:04.633Z,6.33
2018-07-21T18:24:33.732Z,5.90
2018-07-21T18:27:02.932Z,5.47
2018-07-21T18:29:31.994Z,6.43
2018-07-21T18:32:01.141Z,6.20
2018-07-21T18:34:30.253Z,6.33
2018-07-21T18:36:59.408Z,6.33
2018-07-21T18:39:28.575Z,6.53
2018-07-21T18:41:57.702Z,6.57
2018-07-21T18:44:26.827Z,6.53
2018-07-21T18:46:55.782Z,7.23
2018-07-21T18:49:24.924Z,6.80
2018-07-21T18:51:54.019Z,7.73
2018-07-21T18:54:22.900Z,7.57
2018-07-21T18:56:52.010Z,8.27
2018-07-21T18:59:21.103Z,7.97
2018-07-21T19:01:50.223Z,7.80
2018-07-21T19:04:19.335Z,8.70
2018-07-21T19:06:48.390Z,9.50
2018-07-21T19:09:17.467Z,9.50
2018-07-21T19:11:50.684Z,7.80
2018-07-21T19:14:19.823Z,8.37
2018-07-21T19:16:48.909Z,8.90
2018-07-21T19:19:18.055Z,7.87
2018-07-21T19:21:47.199Z,8.20
2018-07-21T19:24:16.411Z,7.10
2018-07-21T19:26:50.859Z,6.33
2018-07-21T19:29:20.001Z,5.90
2018-07-21T19:31:54.601Z,6.57
2018-07-21T19:34:23.690Z,6.40
2018-07-21T19:36:52.810Z,6.43
2018-07-21T19:39:21.898Z,6.37
2018-07-21T19:41:56.237Z,6.83
2018-07-21T19:44:25.295Z,6.77
2018-07-21T19:46:54.343Z,5.93
2018-07-21T19:49:23.445Z,5.50
2018-07-21T19:51:52.562Z,6.10
2018-07-21T19:54:21.708Z,7.23
2018-07-21T19:56:50.841Z,7.60
2018-07-21T19:59:20.046Z,8.00
2018-07-21T20:01:49.132Z,7.83
2018-07-21T20:04:18.270Z,8.93
2018-07-21T20:06:47.237Z,7.40
2018-07-21T20:09:16.327Z,7.53
2018-07-21T20:11:45.442Z,7.17
2018-07-21T20:14:14.547Z,7.03
2018-07-21T20:16:43.606Z,6.77
2018-07-21T20:19:12.746Z,7.53
2018-07-21T20:21:41.851Z,9.50
2018-07-21T20:24:11.081Z,8.40
2018-07-21T20:26:40.158Z,7.90
2018-07-21T20:29:09.269Z,7.40
2018-07-21T20:31:38.345Z,8.47
2018-07-21T20:34:07.492Z,7.37
2018-07-21T20:36:36.584Z,7.63
2018-07-21T20:39:08.634Z,7.87
2018-07-21T20:41:37.755Z,8.00
2018-07-21T20:44:06.975Z,8.33
2018-07-21T20:46:36.522Z,7.90
2018-07-21T20:49:05.665Z,7.40
2018-07-21T20:51:34.875Z,8.63
2018-07-21T20:54:03.980Z,8.00
2018-07-21T20:56:33.038Z,8.00
2018-07-21T20:59:02.142Z,8.40
2018-07-21T21:01:31.267Z,8.37
2018-07-21T21:04:00.365Z,8.07
2018-07-21T21:06:29.495Z,7.33
2018-07-21T21:08:58.646Z,7.67
2018-07-21T21:11:27.716Z,7.33
2018-07-21T21:13:56.794Z,7.43
2018-07-21T21:16:25.940Z,7.60
2018-07-21T21:18:55.138Z,7.20
2018-07-21T21:21:24.242Z,7.63
2018-07-21T21:23:53.343Z,7.13
2018-07-21T21:26:22.479Z,6.40
2018-07-21T21:28:51.652Z,7.93
2018-07-21T21:31:20.757Z,7.00
2018-07-21T21:33:49.867Z,8.23
2018-07-21T21:36:18.938Z,7.40
2018-07-21T21:38:48.032Z,7.60
2018-07-21T21:41:17.118Z,7.43
2018-07-21T21:43:46.200Z,6.77
2018-07-21T21:46:15.310Z,7.07
2018-07-21T21:48:44.484Z,7.57
2018-07-21T21:51:13.626Z,6.40
2018-07-21T21:53:42.681Z,8.57
2018-07-21T21:56:11.819Z,6.30
2018-07-21T21:58:40.986Z,8.33
2018-07-21T22:01:11.298Z,7.73
2018-07-21T22:03:40.435Z,6.80
2018-07-21T22:06:09.562Z,7.63
2018-07-21T22:08:38.652Z,8.17
2018-07-21T22:11:07.789Z,6.90
2018-07-21T22:13:36.946Z,7.37
2018-07-21T22:16:06.031Z,7.47
2018-07-21T22:18:35.085Z,8.20
2018-07-21T22:21:04.219Z,7.27
2018-07-21T22:23:33.344Z,7.30
2018-07-21T22:26:02.274Z,7.30
2018-07-21T22:28:31.428Z,7.60
2018-07-21T22:31:00.509Z,6.67
2018-07-21T22:33:29.606Z,7.77
2018-07-21T22:35:58.784Z,7.13
2018-07-21T22:38:27.911Z,7.83
2018-07-21T22:40:57.042Z,7.77
2018-07-21T22:43:26.193Z,7.67
2018-07-21T22:45:55.317Z,8.03
2018-07-21T22:48:24.459Z,7.67
2018-07-21T22:50:53.556Z,7.27
2018-07-21T22:53:22.622Z,6.83
2018-07-21T22:55:51.750Z,8.40
2018-07-21T22:58:21.015Z,6.60
2018-07-21T23:00:50.278Z,7.40
2018-07-21T23:03:19.376Z,7.83
2018-07-21T23:05:48.474Z,8.00
2018-07-21T23:08:17.602Z,6.80
2018-07-21T23:10:46.677Z,8.33
2018-07-21T23:13:15.845Z,9.43
2018-07-21T23:15:44.993Z,7.43
2018-07-21T23:18:14.065Z,7.30
2018-07-21T23:20:43.190Z,7.50
2018-07-21T23:23:12.290Z,8.30
2018-07-21T23:25:41.413Z,8.40
2018-07-21T23:28:10.549Z,8.63
2018-07-21T23:30:39.718Z,8.47
2018-07-21T23:33:08.813Z,7.50
2018-07-21T23:35:37.973Z,8.43
2018-07-21T23:38:07.117Z,8.60
2018-07-21T23:40:36.278Z,8.73
2018-07-21T23:43:05.448Z,9.03
2018-07-21T23:45:34.529Z,10.07
2018-07-21T23:48:03.654Z,9.80
2018-07-21T23:50:32.833Z,9.30
2018-07-21T23:53:01.901Z,9.00
2018-07-21T23:55:31.026Z,9.70
2018-07-21T23:58:00.090Z,9.90
